Time;durP1;ratioP1;P1;durP2;ratioP2;P2;SDS_P1;SDS_P2;PMS_P1;PMS_P2;Temp;Humidity;BMP_temperature;BMP_pressure;BME280_temperature;BME280_humidity;BME280_pressure;Samples;Min_cycle;Max_cycle;Signal;HPM_P1;HPM_P2
2022/07/20 00:01:34;;;;;;;5.23;4.20;;;;;;;25.60;38.87;98730.81;7001948;28;20202;-78
2022/07/20 00:04:56;;;;;;;4.37;3.97;;;;;;;25.41;39.57;98725.34;7000957;28;20386;-79
2022/07/20 00:11:19;;;;;;;4.70;4.27;;;;;;;25.05;40.58;98745.50;7001765;28;20258;-79
2022/07/20 00:12:00;;;;;;;7.97;3.83;;;;;;;25.06;40.40;98736.13;7001094;28;20236;-79
2022/07/20 00:15:22;;;;;;;6.03;4.33;;;;;;;25.15;40.33;98746.19;7001125;28;20220;-79
2022/07/20 00:18:44;;;;;;;6.17;4.10;;;;;;;25.11;40.52;98739.63;7000329;28;20345;-79
2022/07/20 00:22:05;;;;;;;7.27;4.63;;;;;;;25.30;39.92;98740.44;7000867;28;20294;-79
2022/07/20 00:25:27;;;;;;;5.73;4.40;;;;;;;25.29;39.89;98741.56;7001245;28;20318;-79
2022/07/20 00:28:51;;;;;;;6.77;4.70;;;;;;;25.39;39.60;98724.84;7001161;28;20262;-79
2022/07/20 00:32:12;;;;;;;5.43;4.20;;;;;;;24.95;39.65;98674.78;7001658;28;20226;-79
2022/07/20 00:35:34;;;;;;;5.93;4.00;;;;;;;25.41;39.14;98725.34;7001397;28;20378;-79
2022/07/20 00:38:55;;;;;;;4.20;3.90;;;;;;;25.15;40.22;98721.38;7000875;28;20739;-80
2022/07/20 00:42:17;;;;;;;5.93;4.30;;;;;;;24.81;40.95;98715.28;7001698;28;20264;-79
2022/07/20 00:45:40;;;;;;;6.83;4.50;;;;;;;24.33;42.17;98713.75;7001021;28;20221;-79
2022/07/20 00:49:02;;;;;;;4.80;4.33;;;;;;;24.23;42.54;98710.28;7004148;28;20225;-79
2022/07/20 00:52:24;;;;;;;4.90;3.80;;;;;;;24.37;41.49;98702.94;7001172;28;20225;-79
2022/07/20 00:55:45;;;;;;;4.87;4.07;;;;;;;24.62;40.84;98673.09;7001593;28;20687;-79
2022/07/20 00:59:08;;;;;;;5.70;4.10;;;;;;;24.29;42.08;98706.34;7005596;28;20293;-79
2022/07/20 01:02:31;;;;;;;4.53;4.10;;;;;;;24.27;41.78;98675.50;7006178;28;20904;-78
2022/07/20 01:05:53;;;;;;;5.73;4.20;;;;;;;23.85;43.01;98708.53;7005532;28;20226;-79
2022/07/20 01:09:15;;;;;;;6.70;4.50;;;;;;;23.68;44.04;98716.41;7005788;28;20324;-79
2022/07/20 01:12:38;;;;;;;7.97;4.60;;;;;;;23.89;43.11;98724.19;7005780;28;20232;-79
2022/07/20 01:16:00;;;;;;;7.00;4.40;;;;;;;23.33;42.75;98598.44;7005899;28;20305;-78
2022/07/20 01:19:23;;;;;;;6.63;4.47;;;;;;;24.03;42.88;98716.88;7007823;28;20213;-79
2022/07/20 01:22:46;;;;;;;6.00;4.30;;;;;;;23.87;43.00;98690.63;7006678;28;20254;-79
2022/07/20 01:26:08;;;;;;;5.67;4.13;;;;;;;23.91;43.21;98699.94;7006106;28;20234;-79
2022/07/20 01:29:30;;;;;;;4.60;4.20;;;;;;;23.60;43.51;98706.06;7004883;28;20307;-79
2022/07/20 01:32:51;;;;;;;5.73;4.13;;;;;;;23.67;43.85;98720.28;7005940;28;20320;-79
2022/07/20 01:36:13;;;;;;;4.57;4.10;;;;;;;23.49;43.75;98716.31;7006007;28;20322;-79
2022/07/20 01:39:35;;;;;;;5.43;3.60;;;;;;;24.12;42.38;98728.88;7005010;28;20757;-78
2022/07/20 01:42:57;;;;;;;5.97;4.60;;;;;;;24.12;42.40;98726.13;7005598;28;20285;-79
2022/07/20 01:46:19;;;;;;;6.43;4.20;;;;;;;24.17;41.84;98714.22;7005422;28;20245;-79
2022/07/20 01:49:40;;;;;;;6.50;4.47;;;;;;;24.31;41.43;98724.22;7004857;28;20210;-79
2022/07/20 01:53:02;;;;;;;4.70;4.13;;;;;;;24.69;41.06;98738.91;7005365;28;20316;-79
2022/07/20 01:56:24;;;;;;;4.90;4.07;;;;;;;24.61;41.44;98728.53;7004643;28;20315;-79
2022/07/20 01:59:46;;;;;;;6.97;4.50;;;;;;;24.45;41.68;98719.63;7005005;28;20216;-79
2022/07/20 02:03:08;;;;;;;7.20;4.77;;;;;;;24.43;41.92;98730.13;7006394;28;20259;-79
2022/07/20 02:06:29;;;;;;;5.43;4.50;;;;;;;23.97;42.99;98731.81;7005955;28;20232;-79
2022/07/20 02:09:51;;;;;;;6.60;3.70;;;;;;;24.06;42.81;98734.75;7003236;28;20246;-79
2022/07/20 02:13:14;;;;;;;6.73;4.50;;;;;;;23.98;42.87;98736.22;7004502;28;20362;-79
2022/07/20 02:16:35;;;;;;;7.27;4.30;;;;;;;23.61;43.49;98724.19;7005042;28;20237;-78
2022/07/20 02:19:57;;;;;;;5.87;4.30;;;;;;;23.20;44.72;98734.75;7004131;28;20198;-79
2022/07/20 02:23:18;;;;;;;6.83;4.07;;;;;;;23.49;43.93;98738.34;7004477;28;20210;-79
2022/07/20 02:26:40;;;;;;;6.10;4.10;;;;;;;23.68;43.30;98731.00;7011905;28;20271;-79
2022/07/20 02:30:03;;;;;;;5.17;4.40;;;;;;;23.74;43.09;98729.84;7017081;28;20214;-79
2022/07/20 02:33:25;;;;;;;5.47;4.30;;;;;;;23.62;43.11;98704.66;7003496;28;20229;-79
2022/07/20 02:36:47;;;;;;;7.50;4.50;;;;;;;23.25;44.75;98739.41;7004438;28;20197;-79
2022/07/20 02:40:09;;;;;;;4.27;3.70;;;;;;;23.75;43.28;98731.47;7003605;28;20298;-79
2022/07/20 02:43:31;;;;;;;4.47;4.03;;;;;;;23.95;43.04;98734.03;7003407;28;20220;-79
2022/07/20 02:46:54;;;;;;;5.57;4.00;;;;;;;23.87;42.89;98731.94;7004076;28;20249;-79
2022/07/20 02:50:16;;;;;;;5.90;4.03;;;;;;;23.50;44.07;98734.50;7028133;28;20226;-78
2022/07/20 02:53:37;;;;;;;6.43;4.10;;;;;;;23.38;44.08;98742.31;7031128;28;20262;-79
2022/07/20 02:56:59;;;;;;;5.90;4.20;;;;;;;23.11;45.03;98739.22;7030835;28;20240;-79
2022/07/20 03:00:21;;;;;;;6.70;4.20;;;;;;;23.38;44.42;98734.06;7029793;28;20345;-79
2022/07/20 03:03:45;;;;;;;4.90;4.10;;;;;;;22.76;46.08;98736.72;7030183;28;20321;-79
2022/07/20 03:07:06;;;;;;;7.20;4.27;;;;;;;22.63;46.39;98739.25;7030106;28;20235;-78
2022/07/20 03:10:28;;;;;;;4.90;3.97;;;;;;;21.63;48.88;98743.19;7030483;28;20207;-78
2022/07/20 03:13:49;;;;;;;6.03;4.40;;;;;;;22.42;47.11;98734.97;7031832;28;20285;-79
2022/07/20 03:17:11;;;;;;;5.00;3.90;;;;;;;23.06;45.22;98736.50;7031540;28;20214;-79
2022/07/20 03:20:34;;;;;;;6.40;3.87;;;;;;;23.18;44.57;98727.91;7033068;28;20210;-78
2022/07/20 03:23:55;;;;;;;4.60;4.17;;;;;;;23.41;44.29;98733.47;7034189;28;20623;-79
2022/07/20 03:27:17;;;;;;;5.23;4.10;;;;;;;23.52;44.08;98732.28;7033079;28;20685;-79
2022/07/20 03:30:39;;;;;;;6.83;4.30;;;;;;;22.90;44.94;98723.16;7032857;28;20211;-79
2022/07/20 03:34:00;;;;;;;5.07;3.90;;;;;;;22.77;45.57;98724.59;7032327;28;20778;-79
2022/07/20 03:37:23;;;;;;;4.37;3.90;;;;;;;23.10;44.54;98707.31;7031817;28;20194;-79
2022/07/20 03:40:44;;;;;;;5.07;3.70;;;;;;;23.04;45.29;98744.22;7032285;28;20252;-79
2022/07/20 03:44:06;;;;;;;5.13;3.83;;;;;;;23.08;44.79;98747.22;7032601;28;20316;-78
2022/07/20 03:47:27;;;;;;;4.30;3.87;;;;;;;23.17;44.62;98745.50;7032365;28;20277;-79
2022/07/20 03:50:49;;;;;;;4.20;3.73;;;;;;;23.16;45.01;98743.84;7032450;28;20209;-78
2022/07/20 03:54:12;;;;;;;6.80;4.70;;;;;;;23.44;44.17;98741.16;7032165;28;20310;-79
2022/07/20 03:57:33;;;;;;;6.80;4.17;;;;;;;23.45;44.43;98740.03;7035417;28;20205;-80
2022/07/20 04:00:55;;;;;;;4.20;3.80;;;;;;;23.18;44.62;98742.47;7046093;28;20230;-79
2022/07/20 04:04:18;;;;;;;4.83;4.33;;;;;;;23.17;45.07;98737.25;7030882;28;20243;-79
2022/07/20 04:07:39;;;;;;;5.37;4.03;;;;;;;23.05;44.87;98734.00;7031278;28;20205;-79
2022/07/20 04:11:02;;;;;;;8.13;4.40;;;;;;;22.68;46.20;98742.81;7031744;28;20300;-79
2022/07/20 04:14:24;;;;;;;6.13;4.37;;;;;;;22.60;46.43;98739.84;7031558;28;20640;-79
2022/07/20 04:17:45;;;;;;;6.87;4.30;;;;;;;22.51;46.80;98730.53;7032748;28;20219;-79
2022/07/20 04:21:07;;;;;;;5.03;3.83;;;;;;;22.78;46.65;98740.00;7036880;28;20312;-78
2022/07/20 04:24:29;;;;;;;6.50;4.57;;;;;;;22.69;46.33;98738.97;7031527;28;20300;-78
2022/07/20 04:27:52;;;;;;;5.60;4.27;;;;;;;22.64;47.08;98744.50;7031366;28;20301;-78
2022/07/20 04:31:13;;;;;;;6.97;4.37;;;;;;;22.72;47.34;98745.81;7034902;28;20246;-79
2022/07/20 04:34:35;;;;;;;11.87;9.40;;;;;;;22.85;46.56;98745.19;7056167;28;20230;-78
2022/07/20 04:37:56;;;;;;;6.67;4.20;;;;;;;23.01;45.90;98750.28;7037461;28;20218;-78
2022/07/20 04:41:18;;;;;;;4.70;3.80;;;;;;;23.26;45.13;98758.34;7037462;28;20738;-77
2022/07/20 04:44:41;;;;;;;5.33;4.33;;;;;;;22.60;46.68;98718.66;7036647;28;20226;-78
2022/07/20 04:48:02;;;;;;;6.53;4.20;;;;;;;22.83;46.37;98761.94;7029987;28;20236;-78
2022/07/20 04:51:24;;;;;;;6.30;4.70;;;;;;;22.79;46.76;98749.91;7008801;28;20681;-79
2022/07/20 04:54:46;;;;;;;4.30;3.80;;;;;;;23.24;45.88;98741.31;7009732;28;20639;-78
2022/07/20 04:58:07;;;;;;;7.27;4.33;;;;;;;23.52;45.91;98768.06;7008288;28;20208;-77
2022/07/20 05:01:30;;;;;;;8.93;4.37;;;;;;;23.88;45.02;98754.78;7008966;28;20301;-77
2022/07/20 05:04:52;;;;;;;7.57;4.27;;;;;;;23.76;44.44;98713.00;7006947;28;20273;-78
2022/07/20 05:08:14;;;;;;;4.77;4.17;;;;;;;24.16;44.47;98738.19;7007618;28;20218;-78
2022/07/20 05:11:35;;;;;;;7.83;4.00;;;;;;;24.50;43.55;98749.06;7008477;28;20306;-78
2022/07/20 05:14:57;;;;;;;5.80;4.10;;;;;;;24.92;43.10;98746.28;7007949;28;20269;-78
2022/07/20 05:18:20;;;;;;;7.97;4.70;;;;;;;25.42;41.26;98721.47;7007404;28;20207;-78
2022/07/20 05:21:41;;;;;;;10.60;5.00;;;;;;;25.72;40.66;98742.19;7007848;28;20752;-78
2022/07/20 05:25:03;;;;;;;9.17;4.67;;;;;;;26.12;40.68;98736.72;7010312;28;20222;-77
2022/07/20 05:28:25;;;;;;;12.90;4.70;;;;;;;26.47;39.95;98730.47;7007667;28;20208;-78
2022/07/20 05:31:46;;;;;;;22.50;5.80;;;;;;;26.56;38.99;98728.66;7007040;28;20243;-78
2022/07/20 05:35:10;;;;;;;16.63;5.00;;;;;;;27.01;38.82;98732.31;7007459;28;20232;-79
2022/07/20 05:38:31;;;;;;;6.50;4.43;;;;;;;27.10;38.44;98722.13;7007245;28;20285;-78
2022/07/20 05:41:54;;;;;;;10.70;5.30;;;;;;;27.44;38.47;98719.63;7011247;28;20248;-79
2022/07/20 05:45:15;;;;;;;12.80;4.63;;;;;;;28.10;36.90;98738.91;7019082;28;20228;-79
2022/07/20 05:48:37;;;;;;;11.97;5.10;;;;;;;27.77;37.31;98735.66;7009740;28;20235;-78
2022/07/20 05:52:00;;;;;;;8.03;3.97;;;;;;;27.67;37.55;98743.41;7007705;28;20213;-78
2022/07/20 05:55:23;;;;;;;5.67;4.20;;;;;;;27.83;37.81;98722.50;7006682;28;20235;-78
2022/07/20 05:58:44;;;;;;;8.83;4.37;;;;;;;28.59;36.99;98758.00;7008680;28;20275;-78
2022/07/20 06:02:06;;;;;;;15.63;4.60;;;;;;;28.85;36.21;98745.81;7008665;28;20261;-78
2022/07/20 06:05:28;;;;;;;13.43;4.80;;;;;;;29.74;34.39;98751.56;7005492;28;20597;-78
2022/07/20 06:08:51;;;;;;;8.63;4.40;;;;;;;29.24;35.17;98751.25;7006679;28;20223;-78
2022/07/20 06:12:12;;;;;;;7.87;4.27;;;;;;;29.12;35.55;98765.00;7006816;28;20203;-77
2022/07/20 06:15:34;;;;;;;6.40;4.47;;;;;;;29.76;35.00;98750.06;7006207;28;20382;-78
2022/07/20 06:18:55;;;;;;;6.47;4.07;;;;;;;30.43;33.87;98764.91;7005848;28;20229;-79
2022/07/20 06:22:17;;;;;;;7.37;4.30;;;;;;;30.63;33.06;98769.72;7006756;28;20833;-79
2022/07/20 06:25:40;;;;;;;8.93;3.93;;;;;;;30.88;32.00;98765.16;7005708;28;20323;-79
2022/07/20 06:29:01;;;;;;;8.80;4.70;;;;;;;31.42;32.01;98764.13;7005287;28;20194;-79
2022/07/20 06:32:23;;;;;;;7.47;4.47;;;;;;;31.61;31.86;98776.38;7006584;28;20681;-79
2022/07/20 06:35:44;;;;;;;5.47;4.10;;;;;;;31.64;30.78;98758.13;7008101;28;20615;-79
2022/07/20 06:39:06;;;;;;;6.90;3.93;;;;;;;31.80;30.51;98771.16;7019557;28;20209;-78
2022/07/20 06:42:29;;;;;;;5.27;4.10;;;;;;;32.20;30.62;98771.34;7006245;28;20237;-77
2022/07/20 06:45:50;;;;;;;7.00;4.20;;;;;;;32.36;29.95;98772.31;7006123;28;20300;-78
2022/07/20 06:49:13;;;;;;;4.90;4.00;;;;;;;32.73;29.15;98785.13;7005221;28;20217;-79
2022/07/20 06:52:35;;;;;;;6.70;3.77;;;;;;;32.95;28.93;98785.47;7005931;28;20213;-79
2022/07/20 06:55:57;;;;;;;6.17;3.33;;;;;;;33.25;28.33;98789.59;7004819;28;20225;-79
2022/07/20 06:59:20;;;;;;;7.80;3.37;;;;;;;33.47;28.14;98799.44;7004878;28;20213;-79
2022/07/20 07:02:42;;;;;;;6.90;3.10;;;;;;;33.60;27.49;98793.47;7004931;28;20225;-79
2022/07/20 07:06:03;;;;;;;8.20;3.83;;;;;;;32.95;27.31;98763.13;7003447;28;20249;-78
2022/07/20 07:09:25;;;;;;;5.33;3.40;;;;;;;34.46;26.43;98785.09;7004403;28;20193;-80
2022/07/20 07:12:46;;;;;;;5.10;2.93;;;;;;;35.06;25.38;98778.97;7004657;28;20255;-79
2022/07/20 07:16:09;;;;;;;8.00;3.73;;;;;;;35.03;25.00;98751.66;7004554;28;20315;-78
2022/07/20 07:19:31;;;;;;;8.20;3.33;;;;;;;35.43;24.81;98773.81;7003651;28;20291;-79
2022/07/20 07:22:53;;;;;;;4.20;3.17;;;;;;;35.14;25.77;98788.38;7004269;28;20255;-79
2022/07/20 07:26:14;;;;;;;6.80;3.37;;;;;;;35.11;25.71;98773.09;7004080;28;20221;-79
2022/07/20 07:29:36;;;;;;;4.47;3.30;;;;;;;35.45;25.72;98780.69;7003952;28;20209;-79
2022/07/20 07:32:59;;;;;;;3.77;3.13;;;;;;;34.84;25.42;98781.66;7004390;28;20221;-79
2022/07/20 07:36:22;;;;;;;3.90;3.57;;;;;;;34.90;25.40;98771.81;7004618;28;20299;-79
2022/07/20 07:39:43;;;;;;;3.40;3.10;;;;;;;35.21;26.02;98780.13;7003350;28;20570;-79
2022/07/20 07:43:05;;;;;;;3.60;3.30;;;;;;;34.35;26.48;98780.38;7003865;28;20236;-79
2022/07/20 07:46:26;;;;;;;8.43;3.67;;;;;;;34.12;26.73;98774.56;7003602;28;20229;-80
2022/07/20 07:49:49;;;;;;;6.80;3.93;;;;;;;34.64;26.89;98772.34;7003738;28;20244;-79
2022/07/20 07:53:11;;;;;;;4.40;3.63;;;;;;;36.05;24.92;98765.06;7004162;28;20232;-79
2022/07/20 07:56:33;;;;;;;5.37;3.63;;;;;;;36.33;24.33;98762.81;7003505;28;20226;-79
2022/07/20 07:59:54;;;;;;;7.77;3.60;;;;;;;36.43;24.33;98756.56;7003177;28;20211;-79
2022/07/20 08:03:16;;;;;;;6.43;3.70;;;;;;;37.01;24.17;98761.53;7002481;28;20592;-78
2022/07/20 08:06:39;;;;;;;5.67;3.60;;;;;;;36.51;24.34;98761.09;7002995;28;20322;-78
2022/07/20 08:10:01;;;;;;;6.50;3.73;;;;;;;36.28;24.29;98751.88;7003861;28;20714;-79
2022/07/20 08:13:22;;;;;;;4.17;3.40;;;;;;;35.70;25.06;98741.94;7004423;28;20213;-79
2022/07/20 08:16:44;;;;;;;4.73;3.30;;;;;;;36.95;23.49;98720.88;7003861;28;20265;-78
2022/07/20 08:20:06;;;;;;;5.33;3.97;;;;;;;37.47;22.63;98734.88;7004099;28;20206;-79
2022/07/20 08:23:29;;;;;;;7.90;4.20;;;;;;;38.05;22.07;98747.25;7003920;28;20220;-79
2022/07/20 08:26:51;;;;;;;6.73;3.57;;;;;;;37.24;23.12;98767.09;7004350;28;20278;-80
2022/07/20 08:30:13;;;;;;;6.13;4.13;;;;;;;36.00;23.92;98742.91;7003146;28;20229;-79
2022/07/20 08:33:35;;;;;;;5.30;3.73;;;;;;;35.79;24.60;98757.34;7003370;28;20221;-79
2022/07/20 08:36:56;;;;;;;4.40;4.00;;;;;;;35.65;24.29;98725.38;7004005;28;20295;-79
2022/07/20 08:40:19;;;;;;;10.57;4.00;;;;;;;38.03;23.27;98748.81;7002432;28;20214;-79
2022/07/20 08:43:41;;;;;;;7.75;3.63;;;;;;;39.02;21.25;98737.22;7004322;28;20202;-79
2022/07/20 08:47:02;;;;;;;4.70;3.40;;;;;;;39.52;20.39;98741.91;7003802;28;20304;-79
2022/07/20 08:50:29;;;;;;;4.40;4.00;;;;;;;38.20;21.21;98731.28;7003421;28;20201;-79
2022/07/20 08:53:51;;;;;;;5.65;4.07;;;;;;;37.86;21.83;98735.34;7002732;28;20228;-79
2022/07/20 08:57:17;;;;;;;6.18;4.07;;;;;;;37.39;22.73;98760.47;7009940;28;20217;-78
2022/07/20 09:00:38;;;;;;;4.23;3.60;;;;;;;38.47;21.74;98744.84;7008761;28;20654;-79
2022/07/20 09:04:05;;;;;;;5.53;3.90;;;;;;;37.42;22.79;98743.63;7000085;28;20222;-79
2022/07/20 09:07:39;;;;;;;6.93;4.20;;;;;;;38.27;21.22;98723.72;7001072;28;20204;-79
2022/07/20 09:11:02;;;;;;;4.93;3.63;;;;;;;39.16;20.83;98734.47;7001962;28;20275;-79
2022/07/20 09:14:40;;;;;;;5.32;3.90;;;;;;;39.61;20.02;98748.81;7001397;28;20229;-79
2022/07/20 09:18:08;;;;;;;4.90;4.05;;;;;;;40.59;19.33;98748.25;7004469;28;20229;-79
2022/07/20 09:21:30;;;;;;;5.05;3.67;;;;;;;40.57;19.74;98754.34;7007447;28;20214;-79
2022/07/20 09:25:06;;;;;;;6.93;4.15;;;;;;;40.08;19.43;98754.22;7008108;28;20228;-79
2022/07/20 09:28:36;;;;;;;4.38;3.60;;;;;;;40.30;18.91;98746.59;7006614;28;20542;-79
2022/07/20 09:32:03;;;;;;;4.20;3.80;;;;;;;39.71;19.14;98745.25;7007191;28;20274;-78
2022/07/20 09:35:27;;;;;;;6.13;3.83;;;;;;;40.10;19.38;98751.81;7007377;28;20236;-78
2022/07/20 09:38:49;;;;;;;6.10;3.97;;;;;;;39.87;17.56;98733.59;7006174;28;20209;-79
2022/07/20 09:42:13;;;;;;;7.13;3.80;;;;;;;39.98;17.83;98720.31;7006111;28;20206;-79
2022/07/20 09:45:36;;;;;;;5.15;4.22;;;;;;;40.00;17.40;98746.13;7006497;28;20703;-79
2022/07/20 09:49:00;;;;;;;7.00;4.05;;;;;;;40.73;17.74;98759.59;7005579;28;20272;-79
2022/07/20 09:52:22;;;;;;;6.60;3.90;;;;;;;40.33;17.06;98726.84;7006250;28;20228;-79
2022/07/20 09:55:44;;;;;;;5.95;4.15;;;;;;;40.16;17.50;98755.09;7007280;28;20261;-79
2022/07/20 09:59:07;;;;;;;6.72;4.85;;;;;;;40.71;17.09;98740.19;7008952;28;20202;-79
2022/07/20 10:02:29;;;;;;;6.07;4.00;;;;;;;40.17;17.76;98754.69;7006579;28;20210;-79
2022/07/20 10:05:54;;;;;;;8.63;4.05;;;;;;;41.36;17.01;98740.50;7004590;28;20221;-78
2022/07/20 10:09:17;;;;;;;5.82;4.35;;;;;;;40.36;17.54;98740.16;7004937;28;20229;-79
2022/07/20 10:12:39;;;;;;;7.60;4.50;;;;;;;41.26;16.72;98741.31;7006552;28;20205;-79
2022/07/20 10:16:03;;;;;;;7.05;4.70;;;;;;;41.82;16.43;98738.31;7006019;28;20241;-79
2022/07/20 10:19:42;;;;;;;8.00;4.90;;;;;;;41.54;16.79;98732.75;7005177;28;20214;-79
2022/07/20 10:23:32;;;;;;;5.55;4.70;;;;;;;41.39;16.35;98736.88;7005815;28;20206;-78
2022/07/20 10:26:55;;;;;;;7.47;4.82;;;;;;;41.31;16.40;98729.56;7005940;28;20217;-79
2022/07/20 10:30:18;;;;;;;6.07;4.25;;;;;;;40.74;17.11;98724.44;7004871;28;20690;-79
2022/07/20 10:33:40;;;;;;;7.78;4.63;;;;;;;41.35;16.20;98696.41;7006071;28;20206;-78
2022/07/20 10:37:26;;;;;;;7.25;4.82;;;;;;;41.56;16.18;98713.31;7005703;28;20363;-79
2022/07/20 10:44:45;;;;;;;5.75;5.10;;;;;;;40.95;17.10;98721.59;7004515;28;20217;-79
2022/07/20 10:48:27;;;;;;;6.38;4.95;;;;;;;40.63;17.06;98727.28;7004042;28;20302;-79
2022/07/20 10:52:28;;;;;;;10.88;4.85;;;;;;;40.28;17.31;98704.63;6997873;28;20226;-80
2022/07/20 10:55:52;;;;;;;8.15;5.63;;;;;;;40.79;17.64;98735.34;7004255;28;20265;-78
2022/07/20 10:59:15;;;;;;;9.82;5.15;;;;;;;40.69;16.79;98727.66;7005041;28;20683;-79
2022/07/20 11:02:37;;;;;;;7.22;4.78;;;;;;;41.38;16.26;98729.56;7005356;28;20555;-79
2022/07/20 11:06:06;;;;;;;6.65;4.75;;;;;;;41.40;16.57;98721.50;7003611;28;20249;-79
2022/07/20 11:09:31;;;;;;;8.63;5.20;;;;;;;42.08;15.35;98720.72;7004210;28;20213;-79
2022/07/20 11:12:57;;;;;;;9.70;4.95;;;;;;;41.77;16.34;98718.06;7004596;28;20263;-79
2022/07/20 11:16:21;;;;;;;6.13;4.32;;;;;;;42.85;14.69;98707.97;7004024;28;20234;-79
2022/07/20 11:19:43;;;;;;;12.27;4.90;;;;;;;42.13;15.92;98714.59;7003634;28;20234;-80
2022/07/20 11:23:04;;;;;;;5.50;4.65;;;;;;;42.10;15.82;98709.78;7004444;28;20582;-80
2022/07/20 11:26:26;;;;;;;6.35;4.68;;;;;;;42.85;15.77;98699.47;7003475;28;20233;-79
2022/07/20 11:29:49;;;;;;;7.22;4.85;;;;;;;41.76;16.00;98705.09;7003516;28;20210;-79
2022/07/20 11:33:12;;;;;;;5.80;5.22;;;;;;;40.63;16.92;98703.84;7004211;28;20216;-79
2022/07/20 11:36:35;;;;;;;9.77;5.05;;;;;;;40.59;17.46;98706.66;7003315;28;20320;-80
2022/07/20 11:39:56;;;;;;;7.18;4.95;;;;;;;40.57;16.90;98700.63;7003326;28;20555;-79
2022/07/20 11:43:18;;;;;;;7.55;4.68;;;;;;;41.03;15.96;98683.59;7003375;28;20289;-79
2022/07/20 11:46:41;;;;;;;5.45;4.70;;;;;;;41.23;16.66;98693.19;7003835;28;20233;-78
2022/07/20 11:50:10;;;;;;;11.65;4.78;;;;;;;41.53;16.39;98685.00;7004157;28;20210;-79
2022/07/20 11:53:33;;;;;;;5.97;4.75;;;;;;;41.48;16.22;98674.91;7004421;28;20193;-78
2022/07/20 11:56:55;;;;;;;6.65;4.35;;;;;;;41.88;15.45;98688.47;7003928;28;20261;-79
2022/07/20 12:00:17;;;;;;;8.13;4.53;;;;;;;41.84;15.68;98679.19;7003598;28;20292;-79
2022/07/20 12:03:40;;;;;;;8.90;4.60;;;;;;;42.23;15.70;98676.09;7002601;28;20205;-78
2022/07/20 12:08:07;;;;;;;7.60;4.80;;;;;;;42.20;15.37;98674.09;7003720;28;20190;-79
2022/07/20 12:10:45;;;;;;;7.25;4.55;;;;;;;42.72;15.73;98662.28;7005855;28;20206;-80
2022/07/20 12:14:07;;;;;;;9.13;4.50;;;;;;;42.39;15.61;98660.19;7003456;28;20233;-79
2022/07/20 12:17:30;;;;;;;9.50;4.57;;;;;;;42.37;16.12;98658.97;7003103;28;20279;-80
2022/07/20 12:20:58;;;;;;;6.07;4.85;;;;;;;41.89;15.94;98656.09;7003811;28;20210;-79
2022/07/20 12:24:21;;;;;;;10.48;4.97;;;;;;;41.99;16.08;98648.72;7003929;28;20273;-78
2022/07/20 12:27:43;;;;;;;7.20;4.38;;;;;;;41.92;15.85;98655.28;7003526;28;20236;-79
2022/07/20 12:31:12;;;;;;;6.78;4.65;;;;;;;42.57;15.50;98652.34;7003385;28;20237;-80
2022/07/20 12:34:49;;;;;;;9.75;4.65;;;;;;;42.73;15.35;98649.72;7004157;28;20698;-78
2022/07/20 12:38:11;;;;;;;9.55;4.78;;;;;;;42.78;15.45;98642.78;7002858;28;20231;-79
2022/07/20 12:41:35;;;;;;;8.10;4.60;;;;;;;43.03;14.88;98646.97;7003351;28;20232;-79
2022/07/20 12:45:01;;;;;;;5.75;4.50;;;;;;;43.02;14.70;98642.53;7003130;28;20226;-79
2022/07/20 12:48:23;;;;;;;10.30;4.28;;;;;;;42.82;15.00;98637.88;7001079;28;20300;-79
2022/07/20 12:51:44;;;;;;;6.93;4.47;;;;;;;42.58;14.78;98645.44;7002228;28;20686;-79
2022/07/20 12:55:06;;;;;;;7.10;4.55;;;;;;;43.54;14.96;98629.69;7005770;28;20753;-79
2022/07/20 12:58:29;;;;;;;9.50;4.43;;;;;;;42.49;15.41;98622.38;7007374;28;20743;-79
2022/07/20 13:01:51;;;;;;;12.50;5.10;;;;;;;42.33;16.13;98630.66;7006993;28;20296;-79
2022/07/20 13:05:16;;;;;;;6.53;4.95;;;;;;;42.67;15.58;98616.56;7005673;28;20253;-79
2022/07/20 13:08:37;;;;;;;6.20;4.53;;;;;;;41.95;16.41;98642.28;7006483;28;20217;-79
2022/07/20 13:11:59;;;;;;;5.90;4.93;;;;;;;42.46;16.61;98633.75;7007313;28;20312;-79
2022/07/20 13:15:22;;;;;;;8.77;5.13;;;;;;;42.14;16.83;98653.06;7008011;28;20233;-79
2022/07/20 13:18:43;;;;;;;8.88;5.30;;;;;;;42.30;16.70;98662.66;7007723;28;20255;-79
2022/07/20 13:22:05;;;;;;;5.97;5.35;;;;;;;41.07;17.65;98661.75;7008239;28;20621;-79
2022/07/20 13:25:26;;;;;;;8.60;5.63;;;;;;;41.05;18.24;98667.00;7008508;28;20228;-79
2022/07/20 13:28:48;;;;;;;7.07;6.07;;;;;;;40.73;18.67;98674.75;7008421;28;20202;-79
2022/07/20 13:32:11;;;;;;;12.73;7.00;;;;;;;40.53;19.47;98677.16;7008405;28;20624;-79
2022/07/20 13:35:32;;;;;;;10.52;7.38;;;;;;;40.06;20.19;98654.94;7008828;28;20226;-79
2022/07/20 13:38:54;;;;;;;12.98;7.85;;;;;;;39.58;20.88;98684.69;7007527;28;20564;-79
2022/07/20 13:42:16;;;;;;;10.68;7.65;;;;;;;39.46;21.26;98684.25;7008844;28;20299;-81
2022/07/20 13:45:37;;;;;;;13.90;9.80;;;;;;;38.76;22.43;98689.47;7007712;28;20264;-79
2022/07/20 13:49:03;;;;;;;14.25;10.02;;;;;;;38.53;23.47;98703.81;7007284;28;20210;-78
2022/07/20 13:52:24;;;;;;;12.45;10.52;;;;;;;38.05;24.72;98710.63;7007331;28;20209;-78
2022/07/20 13:55:49;;;;;;;17.87;10.97;;;;;;;37.51;25.34;98690.69;7008958;28;20294;-78
2022/07/20 13:59:10;;;;;;;12.07;10.88;;;;;;;37.54;25.71;98697.59;7007712;28;20202;-78
2022/07/20 14:02:32;;;;;;;17.13;10.97;;;;;;;37.71;25.70;98692.16;7007713;28;20300;-77
2022/07/20 14:05:55;;;;;;;13.50;10.57;;;;;;;37.73;25.58;98698.19;7005062;28;20256;-78
2022/07/20 14:09:17;;;;;;;15.50;10.37;;;;;;;37.88;25.70;98683.06;7007034;28;20190;-78
2022/07/20 14:12:39;;;;;;;14.63;10.40;;;;;;;37.73;25.80;98681.31;7007335;28;20241;-79
2022/07/20 14:16:01;;;;;;;14.40;10.57;;;;;;;37.78;25.84;98660.47;7006444;28;20225;-78
2022/07/20 14:19:22;;;;;;;16.10;10.83;;;;;;;37.63;25.74;98659.50;7005419;28;20269;-79
2022/07/20 14:22:45;;;;;;;12.40;9.87;;;;;;;36.79;27.07;98677.28;7007275;28;20206;-80
2022/07/20 14:26:07;;;;;;;12.77;10.77;;;;;;;37.59;25.81;98677.53;7006383;28;20221;-79
2022/07/20 14:29:28;;;;;;;14.03;11.17;;;;;;;38.14;25.70;98670.88;7005680;28;20211;-79
2022/07/20 14:32:50;;;;;;;13.32;10.48;;;;;;;37.98;25.66;98657.06;7006153;28;20662;-79
2022/07/20 14:36:11;;;;;;;13.82;10.27;;;;;;;38.25;25.18;98661.31;7006684;28;20237;-79
2022/07/20 14:39:34;;;;;;;13.35;10.75;;;;;;;37.57;26.89;98677.94;7006276;28;20202;-78
2022/07/20 14:42:56;;;;;;;14.73;10.82;;;;;;;37.66;26.60;98675.59;7006730;28;20244;-78
2022/07/20 14:46:17;;;;;;;16.13;11.20;;;;;;;36.93;27.28;98666.22;7006406;28;20245;-79
2022/07/20 14:49:39;;;;;;;14.50;11.13;;;;;;;36.58;28.10;98674.94;7006422;28;20768;-78
2022/07/20 14:53:03;;;;;;;14.13;11.90;;;;;;;36.76;27.32;98659.16;7006978;28;20212;-79
2022/07/20 14:56:26;;;;;;;14.67;11.30;;;;;;;36.76;27.67;98676.03;7004938;28;20670;-79
2022/07/20 14:59:48;;;;;;;14.57;10.40;;;;;;;36.13;28.64;98665.75;7006375;28;20217;-79
2022/07/20 15:03:10;;;;;;;13.60;11.20;;;;;;;36.29;28.39;98663.63;7004608;28;20210;-79
2022/07/20 15:06:32;;;;;;;19.93;11.50;;;;;;;36.75;27.76;98656.72;7006204;28;20242;-79
2022/07/20 15:09:54;;;;;;;13.67;10.93;;;;;;;36.94;27.61;98657.41;7005068;28;20213;-79
2022/07/20 15:13:17;;;;;;;19.13;11.23;;;;;;;36.96;28.30;98646.56;7005345;28;20206;-79
2022/07/20 15:16:38;;;;;;;15.97;10.53;;;;;;;37.27;28.96;98648.22;7004946;28;20697;-79
2022/07/20 15:20:00;;;;;;;15.33;11.03;;;;;;;36.84;32.29;98649.63;7004648;28;20212;-78
2022/07/20 15:23:22;;;;;;;13.37;11.03;;;;;;;36.98;29.95;98627.34;7004890;28;20296;-79
2022/07/20 15:26:43;;;;;;;13.70;10.30;;;;;;;37.78;29.58;98637.94;7004452;28;20227;-80
2022/07/20 15:30:08;;;;;;;11.60;10.43;;;;;;;37.28;27.62;98624.50;7005116;28;20681;-80
2022/07/20 15:33:29;;;;;;;14.33;10.73;;;;;;;37.97;26.34;98615.97;7006658;28;20213;-80
2022/07/20 15:36:51;;;;;;;13.55;10.48;;;;;;;38.32;26.53;98612.66;7006655;28;20225;-79
2022/07/20 15:40:13;;;;;;;13.50;11.13;;;;;;;37.86;26.68;98603.84;7009062;28;20206;-79
2022/07/20 15:43:36;;;;;;;11.60;10.30;;;;;;;37.60;26.16;98597.56;7009917;28;20256;-80
2022/07/20 15:46:59;;;;;;;13.70;10.93;;;;;;;37.96;26.01;98610.75;7009026;28;20209;-80
2022/07/20 15:50:20;;;;;;;11.60;10.50;;;;;;;37.44;26.21;98614.63;7009529;28;20205;-80
2022/07/20 15:53:42;;;;;;;14.53;10.60;;;;;;;37.37;26.58;98597.69;7009430;28;20209;-79
2022/07/20 15:57:20;;;;;;;14.32;10.48;;;;;;;37.97;26.04;98589.84;7009506;28;20222;-79